Time;durP1;ratioP1;P1;durP2;ratioP2;P2;SDS_P1;SDS_P2;PMS_P1;PMS_P2;Temp;Humidity;BMP_temperature;BMP_pressure;BME280_temperature;BME280_humidity;BME280_pressure;Samples;Min_cycle;Max_cycle;Signal;HPM_P1;HPM_P2
2022/01/31 00:00:08;;;;;;;;;;;6.90;99.90;7.40;100376.00;;;;341570;28;95878;-88
2022/01/31 00:00:20;;;;;;;;;;;6.90;99.90;7.40;100378.00;;;;342661;28;92015;-88
2022/01/31 00:00:31;;;;;;;;;;;6.90;99.90;7.40;100370.00;;;;345829;28;93192;-88
2022/01/31 00:00:43;;;;;;;;;;;6.90;99.90;7.40;100368.00;;;;342560;28;90891;-88
2022/01/31 00:00:55;;;;;;;;;;;6.90;99.90;7.40;100374.00;;;;342544;28;94137;-88
2022/01/31 00:01:07;;;;;;;;;;;6.90;99.90;7.40;100369.00;;;;341403;28;91216;-88
2022/01/31 00:01:19;;;;;;;;;;;6.90;99.90;7.40;100373.00;;;;343789;28;96083;-88
2022/01/31 00:01:30;;;;;;;;;;;6.90;99.90;7.40;100368.00;;;;342878;28;91090;-88
2022/01/31 00:01:42;;;;;;;;;;;6.90;99.90;7.40;100373.00;;;;341553;28;95914;-88
2022/01/31 00:01:54;;;;;;;;;;;6.90;99.90;7.40;100368.00;;;;340006;28;92036;-88
2022/01/31 00:02:06;;;;;;;;;;;6.90;99.90;7.40;100362.00;;;;342991;28;95943;-87
2022/01/31 00:02:18;;;;;;;;;;;6.90;99.90;7.40;100371.00;;;;340120;28;92070;-88
2022/01/31 00:02:30;;;;;;;;;;;6.90;99.90;7.40;100367.00;;;;338918;28;96115;-88
2022/01/31 00:02:42;;;;;;;;;;;6.90;99.90;7.40;100376.00;;;;340130;28;91105;-88
2022/01/31 00:02:54;;;;;;;;;;;6.90;99.90;7.50;100373.00;;;;341648;28;95332;-88
2022/01/31 00:03:06;;;;;;;;;;;6.90;99.90;7.40;100370.00;;;;339792;28;92148;-88
2022/01/31 00:03:18;;;;;;;;;;;6.90;99.90;7.40;100363.00;;;;341378;28;96532;-88
2022/01/31 00:03:34;;;;;;;;;;;6.90;99.90;7.40;100369.00;;;;340085;28;91135;-88
2022/01/31 00:03:46;;;;;;;;;;;6.90;99.90;7.40;100361.00;;;;340512;28;96804;-88
2022/01/31 00:03:58;;;;;;;;;;;6.90;99.90;7.40;100366.00;;;;341206;28;91992;-88
2022/01/31 00:04:09;;;;;;;;;;;6.90;99.90;7.40;100366.00;;;;341652;28;95801;-88
2022/01/31 00:04:21;;;;;;;;;;;6.90;99.90;7.40;100365.00;;;;339927;28;92172;-88
2022/01/31 00:04:33;;;;;;;;;;;6.90;99.90;7.40;100366.00;;;;340265;28;95557;-88
2022/01/31 00:04:45;;;;;;;;;;;6.90;99.90;7.50;100369.00;;;;341386;28;91204;-88
2022/01/31 00:04:56;;;;;;;;;;;6.90;99.90;7.50;100361.00;;;;341649;28;95643;-88
2022/01/31 00:05:09;;;;;;;;;;;6.90;99.90;7.50;100355.00;;;;341250;28;92187;-88
2022/01/31 00:05:20;;;;;;;;;;;6.90;99.90;7.50;100359.00;;;;340355;28;95524;-87
2022/01/31 00:05:32;;;;;;;;;;;6.90;99.90;7.50;100362.00;;;;339993;28;92639;-88
2022/01/31 00:05:44;;;;;;;;;;;6.90;99.90;7.50;100354.00;;;;341401;28;96172;-88
2022/01/31 00:05:56;;;;;;;;;;;6.90;99.90;7.50;100359.00;;;;339880;28;91207;-88
2022/01/31 00:06:08;;;;;;;;;;;6.90;99.90;7.50;100364.00;;;;340362;28;95410;-88
2022/01/31 00:06:20;;;;;;;;;;;7.00;99.90;7.50;100363.00;;;;342507;28;92076;-88
2022/01/31 00:06:31;;;;;;;;;;;7.00;99.90;7.50;100356.00;;;;341512;28;96587;-88
2022/01/31 00:06:48;;;;;;;;;;;7.00;99.90;7.50;100350.00;;;;340302;28;91357;-88
2022/01/31 00:07:00;;;;;;;;;;;7.00;99.90;7.50;100353.00;;;;342322;28;94909;-88
2022/01/31 00:07:12;;;;;;;;;;;7.00;99.90;7.50;100361.00;;;;342758;28;91954;-88
2022/01/31 00:07:23;;;;;;;;;;;6.90;99.90;7.50;100355.00;;;;344386;28;94835;-88
2022/01/31 00:07:36;;;;;;;;;;;7.00;99.90;7.40;100353.00;;;;342743;28;91955;-88
2022/01/31 00:07:47;;;;;;;;;;;7.00;99.90;7.50;100362.00;;;;341459;28;95790;-88
2022/01/31 00:07:59;;;;;;;;;;;7.00;99.90;7.50;100357.00;;;;341327;28;91944;-88
2022/01/31 00:08:11;;;;;;;;;;;7.00;99.90;7.40;100358.00;;;;341592;28;96455;-88
2022/01/31 00:08:24;;;;;;;;;;;7.00;99.90;7.40;100355.00;;;;341420;28;91978;-88
2022/01/31 00:08:35;;;;;;;;;;;6.90;99.90;7.40;100357.00;;;;341574;28;95788;-87
2022/01/31 00:08:48;;;;;;;;;;;6.90;99.90;7.50;100357.00;;;;342767;28;91261;-88
2022/01/31 00:09:00;;;;;;;;;;;7.00;99.90;7.40;100355.00;;;;340041;28;94939;-88
2022/01/31 00:09:15;;;;;;;;;;;7.00;99.90;7.40;100351.00;;;;338715;28;92673;-88
2022/01/31 00:09:27;;;;;;;;;;;7.00;99.90;7.40;100345.00;;;;340348;28;95818;-88
2022/01/31 00:09:40;;;;;;;;;;;6.90;99.90;7.40;100352.00;;;;342676;28;92042;-88
2022/01/31 00:09:52;;;;;;;;;;;6.90;99.90;7.40;100355.00;;;;341220;28;95793;-88
2022/01/31 00:10:07;;;;;;;;;;;6.90;99.90;7.40;100345.00;;;;342588;28;92092;-88
2022/01/31 00:10:27;;;;;;;;;;;6.90;99.90;7.50;100350.00;;;;341193;28;95930;-88
2022/01/31 00:10:39;;;;;;;;;;;6.90;99.90;7.40;100349.00;;;;341441;28;91906;-88
2022/01/31 00:10:51;;;;;;;;;;;6.90;99.90;7.40;100349.00;;;;341682;28;92239;-88
2022/01/31 00:11:03;;;;;;;;;;;6.90;99.90;7.40;100347.00;;;;342685;28;91244;-88
2022/01/31 00:11:15;;;;;;;;;;;6.90;99.90;7.40;100346.00;;;;340243;28;94860;-88
2022/01/31 00:11:27;;;;;;;;;;;6.90;99.90;7.40;100354.00;;;;340093;28;92011;-88
2022/01/31 00:11:42;;;;;;;;;;;6.90;99.90;7.50;100349.00;;;;341740;28;93526;-88
2022/01/31 00:12:04;;;;;;;;;;;6.90;99.90;7.50;100344.00;;;;338640;28;91165;-88
2022/01/31 00:12:19;;;;;;;;;;;6.90;99.90;7.60;100341.00;;;;339971;28;95047;-88
2022/01/31 00:12:34;;;;;;;;;;;7.00;99.90;7.60;100340.00;;;;337416;28;92008;-88
2022/01/31 00:13:35;;;;;;;;;;;7.00;99.90;7.50;100345.00;;;;338590;28;91999;-88
2022/01/31 00:13:57;;;;;;;;;;;7.00;99.90;7.50;100354.00;;;;341469;28;95884;-88
2022/01/31 00:13:57;;;;;;;;;;;7.00;99.90;7.50;100352.00;;;;340168;28;93476;-88
2022/01/31 00:14:20;;;;;;;;;;;7.00;99.90;7.50;100352.00;;;;341499;28;90225;-88
2022/01/31 00:14:43;;;;;;;;;;;7.00;99.90;7.40;100353.00;;;;342847;28;95063;-87
2022/01/31 00:15:01;;;;;;;;;;;7.00;99.90;7.40;100348.00;;;;341445;28;91088;-88
2022/01/31 00:15:13;;;;;;;;;;;7.00;99.90;7.40;100350.00;;;;341540;28;95775;-88
2022/01/31 00:15:25;;;;;;;;;;;7.00;99.90;7.40;100352.00;;;;341371;28;91995;-88
2022/01/31 00:15:40;;;;;;;;;;;7.00;99.90;7.40;100342.00;;;;340249;28;95750;-88
2022/01/31 00:15:57;;;;;;;;;;;6.90;99.90;7.40;100342.00;;;;342486;28;91954;-88
2022/01/31 00:16:09;;;;;;;;;;;6.90;99.90;7.50;100348.00;;;;341711;28;94667;-88
2022/01/31 00:16:25;;;;;;;;;;;7.00;99.90;7.50;100348.00;;;;342322;28;92076;-88
2022/01/31 00:16:37;;;;;;;;;;;7.00;99.90;7.40;100346.00;;;;342748;28;94963;-88
2022/01/31 00:16:49;;;;;;;;;;;6.90;99.90;7.40;100342.00;;;;342697;28;91279;-88
2022/01/31 00:17:01;;;;;;;;;;;6.90;99.90;7.40;100347.00;;;;342947;28;94013;-88
2022/01/31 00:17:13;;;;;;;;;;;6.90;99.90;7.40;100344.00;;;;340059;28;92021;-88
2022/01/31 00:17:25;;;;;;;;;;;6.90;99.90;7.40;100350.00;;;;342940;28;96705;-88
2022/01/31 00:17:36;;;;;;;;;;;6.90;99.90;7.40;100346.00;;;;341461;28;91907;-88
2022/01/31 00:17:48;;;;;;;;;;;6.90;99.90;7.40;100343.00;;;;342670;28;96249;-88
2022/01/31 00:18:00;;;;;;;;;;;6.90;99.90;7.40;100336.00;;;;338697;28;92078;-88
2022/01/31 00:18:12;;;;;;;;;;;6.90;99.90;7.40;100339.00;;;;341672;28;95649;-88
2022/01/31 00:18:24;;;;;;;;;;;6.90;99.90;7.40;100340.00;;;;341490;28;91027;-88
2022/01/31 00:18:36;;;;;;;;;;;6.90;99.90;7.40;100342.00;;;;342982;28;95606;-88
2022/01/31 00:18:47;;;;;;;;;;;6.90;99.90;7.40;100342.00;;;;342424;28;91440;-88
2022/01/31 00:18:59;;;;;;;;;;;6.90;99.90;7.40;100340.00;;;;341442;28;95058;-88
2022/01/31 00:19:11;;;;;;;;;;;6.90;99.90;7.40;100345.00;;;;342739;28;92057;-88
2022/01/31 00:19:23;;;;;;;;;;;6.90;99.90;7.40;100341.00;;;;341663;28;94147;-88
2022/01/31 00:19:37;;;;;;;;;;;6.90;99.90;7.40;100344.00;;;;341436;28;91940;-88
2022/01/31 00:19:49;;;;;;;;;;;6.90;99.90;7.40;100346.00;;;;343640;28;95580;-88
2022/01/31 00:20:01;;;;;;;;;;;6.90;99.90;7.40;100338.00;;;;341351;28;92133;-88
2022/01/31 00:20:13;;;;;;;;;;;6.90;99.90;7.40;100334.00;;;;343055;28;94729;-88
2022/01/31 00:20:25;;;;;;;;;;;6.90;99.90;7.50;100335.00;;;;341070;28;92059;-88
2022/01/31 00:20:37;;;;;;;;;;;6.90;99.90;7.50;100341.00;;;;341625;28;95573;-88
2022/01/31 00:20:48;;;;;;;;;;;6.90;99.90;7.50;100340.00;;;;341437;28;91305;-88
2022/01/31 00:21:00;;;;;;;;;;;6.90;99.90;7.40;100339.00;;;;342877;28;94969;-88
2022/01/31 00:21:12;;;;;;;;;;;6.90;99.90;7.40;100339.00;;;;342695;28;91941;-88
2022/01/31 00:21:24;;;;;;;;;;;6.90;99.90;7.40;100343.00;;;;340303;28;95650;-88
2022/01/31 00:21:36;;;;;;;;;;;6.90;99.90;7.40;100346.00;;;;341356;28;91917;-88
2022/01/31 00:21:47;;;;;;;;;;;6.90;99.90;7.50;100336.00;;;;343251;28;95953;-88
2022/01/31 00:21:59;;;;;;;;;;;6.90;99.90;7.50;100343.00;;;;341793;28;91770;-88
2022/01/31 00:22:12;;;;;;;;;;;6.90;99.90;7.40;100337.00;;;;343052;28;94719;-88
2022/01/31 00:22:24;;;;;;;;;;;6.90;99.90;7.50;100350.00;;;;344114;28;91142;-88
2022/01/31 00:22:36;;;;;;;;;;;6.90;99.90;7.50;100339.00;;;;342993;28;95967;-88
2022/01/31 00:22:48;;;;;;;;;;;6.90;99.90;7.50;100343.00;;;;340205;28;91288;-88
2022/01/31 00:23:00;;;;;;;;;;;7.00;99.90;7.50;100346.00;;;;341656;28;92406;-88
2022/01/31 00:23:11;;;;;;;;;;;7.00;99.90;7.50;100346.00;;;;342771;28;91146;-87
2022/01/31 00:23:23;;;;;;;;;;;7.00;99.90;7.50;100339.00;;;;342988;28;94825;-88
2022/01/31 00:23:35;;;;;;;;;;;6.90;99.90;7.40;100338.00;;;;342781;28;91940;-88
2022/01/31 00:23:47;;;;;;;;;;;7.00;99.90;7.40;100335.00;;;;345586;28;95773;-88
2022/01/31 00:23:59;;;;;;;;;;;6.90;99.90;7.40;100338.00;;;;344084;28;91985;-88
2022/01/31 00:24:11;;;;;;;;;;;6.90;99.90;7.40;100336.00;;;;343058;28;95227;-88
2022/01/31 00:24:22;;;;;;;;;;;6.90;99.90;7.40;100340.00;;;;342536;28;92031;-88
2022/01/31 00:24:34;;;;;;;;;;;7.00;99.90;7.40;100336.00;;;;345786;28;94546;-88
2022/01/31 00:24:46;;;;;;;;;;;7.00;99.90;7.50;100342.00;;;;341123;28;90417;-88
2022/01/31 00:24:58;;;;;;;;;;;6.90;99.90;7.40;100335.00;;;;341418;28;97705;-87
2022/01/31 00:25:10;;;;;;;;;;;6.90;99.90;7.40;100330.00;;;;339970;28;91251;-88
2022/01/31 00:25:21;;;;;;;;;;;6.90;99.90;7.40;100321.00;;;;341374;28;95922;-88
2022/01/31 00:25:33;;;;;;;;;;;6.90;99.90;7.40;100333.00;;;;343905;28;92070;-88
2022/01/31 00:25:45;;;;;;;;;;;6.90;99.90;7.50;100342.00;;;;340312;28;95685;-88
2022/01/31 00:25:57;;;;;;;;;;;6.90;99.90;7.50;100339.00;;;;342733;28;91978;-88
2022/01/31 00:26:08;;;;;;;;;;;7.00;99.90;7.50;100333.00;;;;343016;28;94508;-88
2022/01/31 00:26:20;;;;;;;;;;;6.90;99.90;7.50;100330.00;;;;341257;28;91824;-88
2022/01/31 00:26:32;;;;;;;;;;;6.90;99.90;7.40;100326.00;;;;341581;28;96089;-88
2022/01/31 00:26:44;;;;;;;;;;;6.90;99.90;7.40;100335.00;;;;342712;28;91367;-88
2022/01/31 00:26:55;;;;;;;;;;;6.90;99.90;7.40;100335.00;;;;341667;28;94907;-87
2022/01/31 00:27:08;;;;;;;;;;;6.90;99.90;7.40;100334.00;;;;344106;28;92093;-88
2022/01/31 00:27:19;;;;;;;;;;;6.90;99.90;7.40;100331.00;;;;341678;28;94792;-88
2022/01/31 00:27:31;;;;;;;;;;;6.90;99.90;7.40;100321.00;;;;342549;28;92127;-88
2022/01/31 00:27:43;;;;;;;;;;;6.90;99.90;7.40;100337.00;;;;344088;28;92360;-88
2022/01/31 00:27:55;;;;;;;;;;;6.90;99.90;7.40;100330.00;;;;342121;28;92086;-88
2022/01/31 00:28:06;;;;;;;;;;;6.90;99.90;7.40;100335.00;;;;339036;28;93486;-88
2022/01/31 00:28:18;;;;;;;;;;;6.90;99.90;7.40;100326.00;;;;339994;28;92250;-88
2022/01/31 00:28:30;;;;;;;;;;;6.90;99.90;7.40;100332.00;;;;340251;28;92322;-88
2022/01/31 00:28:42;;;;;;;;;;;6.90;99.90;7.50;100335.00;;;;341137;28;91090;-88
2022/01/31 00:28:53;;;;;;;;;;;6.90;99.90;7.40;100326.00;;;;341797;28;94666;-88
2022/01/31 00:29:05;;;;;;;;;;;6.90;99.90;7.40;100325.00;;;;341591;28;91983;-88
2022/01/31 00:29:17;;;;;;;;;;;6.90;99.90;7.40;100321.00;;;;340461;28;95628;-88
2022/01/31 00:29:29;;;;;;;;;;;6.90;99.90;7.40;100335.00;;;;341702;28;92014;-88
2022/01/31 00:29:40;;;;;;;;;;;6.90;99.90;7.40;100334.00;;;;341890;28;96673;-88
2022/01/31 00:29:52;;;;;;;;;;;6.90;99.90;7.40;100336.00;;;;342974;28;92023;-88
2022/01/31 00:30:05;;;;;;;;;;;6.90;99.90;7.40;100334.00;;;;343279;28;94624;-88
2022/01/31 00:30:17;;;;;;;;;;;6.90;99.90;7.40;100335.00;;;;338918;28;91923;-88
2022/01/31 00:30:28;;;;;;;;;;;6.90;99.90;7.50;100323.00;;;;341785;28;95662;-88
2022/01/31 00:30:40;;;;;;;;;;;6.90;99.90;7.50;100330.00;;;;341656;28;91348;-88
2022/01/31 00:30:52;;;;;;;;;;;6.90;99.90;7.60;100335.00;;;;344172;28;93857;-88
2022/01/31 00:31:04;;;;;;;;;;;6.90;99.90;7.60;100333.00;;;;340113;28;91989;-88
2022/01/31 00:31:15;;;;;;;;;;;7.00;99.90;7.60;100333.00;;;;340341;28;94822;-88
2022/01/31 00:31:27;;;;;;;;;;;7.00;99.90;7.60;100326.00;;;;340259;28;91916;-88
2022/01/31 00:31:39;;;;;;;;;;;7.00;99.90;7.60;100330.00;;;;342997;28;96234;-88
2022/01/31 00:31:51;;;;;;;;;;;7.00;99.90;7.60;100324.00;;;;342914;28;91981;-87
2022/01/31 00:32:03;;;;;;;;;;;7.00;99.90;7.60;100331.00;;;;340487;28;95948;-88
2022/01/31 00:32:15;;;;;;;;;;;7.00;99.90;7.60;100330.00;;;;340199;28;92009;-88
2022/01/31 00:32:29;;;;;;;;;;;7.00;99.90;7.60;100325.00;;;;339084;28;96136;-88
2022/01/31 00:32:41;;;;;;;;;;;7.00;99.90;7.60;100330.00;;;;340349;28;91279;-88
2022/01/31 00:32:53;;;;;;;;;;;7.00;99.90;7.60;100330.00;;;;341946;28;92436;-88
2022/01/31 00:33:05;;;;;;;;;;;7.00;99.90;7.50;100330.00;;;;341598;28;92019;-87
2022/01/31 00:33:17;;;;;;;;;;;7.00;99.90;7.50;100330.00;;;;340544;28;95627;-88
2022/01/31 00:33:28;;;;;;;;;;;7.00;99.90;7.60;100322.00;;;;340188;28;92027;-88
2022/01/31 00:33:40;;;;;;;;;;;7.00;99.90;7.70;100332.00;;;;340479;28;94521;-88
2022/01/31 00:33:52;;;;;;;;;;;7.00;99.90;7.60;100323.00;;;;343189;28;91998;-88
2022/01/31 00:34:04;;;;;;;;;;;7.10;99.90;7.60;100333.00;;;;341940;28;95889;-88
2022/01/31 00:34:15;;;;;;;;;;;7.00;99.90;7.60;100324.00;;;;340598;28;91104;-88
2022/01/31 00:34:27;;;;;;;;;;;7.10;99.90;7.60;100324.00;;;;343142;28;95650;-88
2022/01/31 00:34:39;;;;;;;;;;;7.10;99.90;7.70;100331.00;;;;340307;28;91304;-88
2022/01/31 00:34:51;;;;;;;;;;;7.10;99.90;7.70;100337.00;;;;341371;28;94482;-88
2022/01/31 00:35:03;;;;;;;;;;;7.10;99.90;7.60;100322.00;;;;341555;28;92051;-88
2022/01/31 00:35:15;;;;;;;;;;;7.10;99.90;7.60;100335.00;;;;342793;28;95553;-88
2022/01/31 00:35:27;;;;;;;;;;;7.10;99.90;7.60;100337.00;;;;341620;28;92059;-88
2022/01/31 00:35:38;;;;;;;;;;;7.10;99.90;7.60;100334.00;;;;341824;28;96070;-88
2022/01/31 00:35:50;;;;;;;;;;;7.10;99.90;7.60;100336.00;;;;341652;28;91260;-88
2022/01/31 00:36:02;;;;;;;;;;;7.10;99.90;7.60;100334.00;;;;341842;28;95477;-88
2022/01/31 00:36:14;;;;;;;;;;;7.10;99.90;7.60;100335.00;;;;341586;28;91890;-88
2022/01/31 00:36:25;;;;;;;;;;;7.10;99.90;7.60;100331.00;;;;341878;28;95706;-88
2022/01/31 00:36:37;;;;;;;;;;;7.10;99.90;7.50;100331.00;;;;343032;28;91287;-88
2022/01/31 00:36:49;;;;;;;;;;;7.10;99.90;7.50;100326.00;;;;341134;28;95089;-88
2022/01/31 00:37:01;;;;;;;;;;;7.10;99.90;7.50;100333.00;;;;342872;28;94699;-88
2022/01/31 00:37:13;;;;;;;;;;;7.10;99.90;7.50;100324.00;;;;342979;28;95630;-88
2022/01/31 00:37:25;;;;;;;;;;;7.10;99.90;7.50;100331.00;;;;339051;28;91780;-88
2022/01/31 00:37:36;;;;;;;;;;;7.10;99.90;7.50;100331.00;;;;341793;28;95694;-88
2022/01/31 00:37:48;;;;;;;;;;;7.10;99.90;7.50;100331.00;;;;344144;28;92636;-88
2022/01/31 00:38:00;;;;;;;;;;;7.10;99.90;7.50;100337.00;;;;342955;28;95756;-87
2022/01/31 00:38:12;;;;;;;;;;;7.10;99.90;7.50;100334.00;;;;344410;28;91809;-88
2022/01/31 00:38:23;;;;;;;;;;;7.10;99.90;7.50;100330.00;;;;343212;28;94823;-88
2022/01/31 00:38:35;;;;;;;;;;;7.10;99.90;7.60;100324.00;;;;344378;28;91376;-88
2022/01/31 00:38:47;;;;;;;;;;;7.10;99.90;7.70;100323.00;;;;343117;28;95528;-88
2022/01/31 00:38:59;;;;;;;;;;;7.10;99.90;7.70;100323.00;;;;342870;28;92019;-88
2022/01/31 00:39:11;;;;;;;;;;;7.10;99.90;7.70;100322.00;;;;341815;28;96131;-88
2022/01/31 00:39:22;;;;;;;;;;;7.10;99.90;7.70;100325.00;;;;343022;28;91881;-88
2022/01/31 00:39:36;;;;;;;;;;;7.10;99.90;7.60;100324.00;;;;341896;28;95456;-88
2022/01/31 00:39:48;;;;;;;;;;;7.10;99.90;7.60;100317.00;;;;342593;28;92241;-88
2022/01/31 00:39:59;;;;;;;;;;;7.10;99.90;7.70;100320.00;;;;343059;28;95715;-88
2022/01/31 00:40:12;;;;;;;;;;;7.10;99.90;7.70;100318.00;;;;344341;28;91983;-88
2022/01/31 00:40:24;;;;;;;;;;;7.10;99.90;7.70;100333.00;;;;341698;28;96194;-88
2022/01/31 00:40:41;;;;;;;;;;;7.10;99.90;7.70;100322.00;;;;341635;28;91303;-88
2022/01/31 00:40:53;;;;;;;;;;;7.10;99.90;7.70;100321.00;;;;343226;28;92604;-88
2022/01/31 00:41:04;;;;;;;;;;;7.10;99.90;7.80;100317.00;;;;344277;28;92076;-88
2022/01/31 00:41:16;;;;;;;;;;;7.10;99.90;7.70;100330.00;;;;344624;28;95541;-88
2022/01/31 00:41:28;;;;;;;;;;;7.10;99.90;7.80;100331.00;;;;342954;28;91990;-88
2022/01/31 00:41:40;;;;;;;;;;;7.10;99.90;7.80;100330.00;;;;344568;28;95808;-88
2022/01/31 00:41:52;;;;;;;;;;;7.10;99.90;7.80;100323.00;;;;342941;28;92085;-88
2022/01/31 00:42:05;;;;;;;;;;;7.20;99.90;7.70;100321.00;;;;343263;28;95765;-88
2022/01/31 00:42:19;;;;;;;;;;;7.20;99.90;7.80;100326.00;;;;344354;28;91913;-89
2022/01/31 00:42:32;;;;;;;;;;;7.10;99.90;7.70;100331.00;;;;343017;28;95882;-88
2022/01/31 00:42:43;;;;;;;;;;;7.20;99.90;7.70;100331.00;;;;342384;28;91743;-88
2022/01/31 00:42:55;;;;;;;;;;;7.20;99.90;7.60;100326.00;;;;341804;28;91748;-88
2022/01/31 00:43:12;;;;;;;;;;;7.20;99.90;7.60;100326.00;;;;344183;28;92053;-87
2022/01/31 00:43:24;;;;;;;;;;;7.20;99.90;7.60;100330.00;;;;343244;28;93345;-88
2022/01/31 00:43:37;;;;;;;;;;;7.10;99.90;7.60;100323.00;;;;342969;28;91984;-87
2022/01/31 00:44:00;;;;;;;;;;;7.10;99.90;7.60;100321.00;;;;342341;28;95920;-88
2022/01/31 00:44:41;;;;;;;;;;;7.10;99.90;7.60;100317.00;;;;343216;28;93915;-88
2022/01/31 00:44:56;;;;;;;;;;;7.10;99.90;7.70;100310.00;;;;344350;28;92041;-88
2022/01/31 00:45:28;;;;;;;;;;;7.10;99.90;7.70;100315.00;;;;340165;28;95697;-88
2022/01/31 00:45:54;;;;;;;;;;;7.10;99.90;7.80;100319.00;;;;342946;28;90564;-88
2022/01/31 00:46:12;;;;;;;;;;;7.20;99.90;7.80;100324.00;;;;343238;28;95121;-88
2022/01/31 00:46:30;;;;;;;;;;;7.20;99.90;7.70;100315.00;;;;342823;28;91977;-87
2022/01/31 00:46:47;;;;;;;;;;;7.20;99.90;7.70;100323.00;;;;343160;28;95182;-88
2022/01/31 00:47:06;;;;;;;;;;;7.20;99.90;7.70;100317.00;;;;341618;28;91143;-88
2022/01/31 00:47:25;;;;;;;;;;;7.20;99.90;7.70;100305.00;;;;344519;28;95911;-88
2022/01/31 00:47:47;;;;;;;;;;;7.20;99.90;7.70;100312.00;;;;341454;28;92068;-88
2022/01/31 00:48:04;;;;;;;;;;;7.20;99.90;7.80;100310.00;;;;343235;28;94696;-88
2022/01/31 00:48:19;;;;;;;;;;;7.20;99.90;7.80;100312.00;;;;341598;28;91908;-88
2022/01/31 00:48:39;;;;;;;;;;;7.20;99.90;7.80;100308.00;;;;340292;28;96928;-88
2022/01/31 00:48:51;;;;;;;;;;;7.20;99.90;7.80;100308.00;;;;342996;28;91526;-88
2022/01/31 00:49:03;;;;;;;;;;;7.20;99.90;7.80;100310.00;;;;341144;28;93021;-87
2022/01/31 00:50:19;;;;;;;;;;;7.20;99.90;7.80;100299.00;;;;341559;28;91164;-88
2022/01/31 00:50:37;;;;;;;;;;;7.20;99.90;7.80;100306.00;;;;337772;28;94723;-88
2022/01/31 00:50:49;;;;;;;;;;;7.20;99.90;7.80;100304.00;;;;340177;28;92035;-88
2022/01/31 00:51:01;;;;;;;;;;;7.30;99.90;7.80;100308.00;;;;340394;28;94649;-87
2022/01/31 00:51:13;;;;;;;;;;;7.30;99.90;7.80;100300.00;;;;341494;28;92080;-88
2022/01/31 00:51:25;;;;;;;;;;;7.30;99.90;7.90;100303.00;;;;340474;28;93298;-88
2022/01/31 00:51:37;;;;;;;;;;;7.20;99.90;7.90;100305.00;;;;338586;28;91842;-88
2022/01/31 00:51:49;;;;;;;;;;;7.30;99.90;7.90;100297.00;;;;339539;28;92752;-88
2022/01/31 00:52:02;;;;;;;;;;;7.30;99.90;7.90;100302.00;;;;337337;28;92335;-88
2022/01/31 00:52:13;;;;;;;;;;;7.30;99.90;7.90;100306.00;;;;340393;28;93125;-88
2022/01/31 00:52:25;;;;;;;;;;;7.30;99.90;7.80;100304.00;;;;341414;28;92104;-88
2022/01/31 00:52:42;;;;;;;;;;;7.30;99.90;7.80;100300.00;;;;340555;28;93330;-88
2022/01/31 00:52:55;;;;;;;;;;;7.20;99.90;7.80;100304.00;;;;340144;28;92152;-88
2022/01/31 00:53:07;;;;;;;;;;;7.30;99.90;7.80;100303.00;;;;340356;28;95870;-88
2022/01/31 00:53:18;;;;;;;;;;;7.30;99.90;7.80;100293.00;;;;337567;28;92035;-88
2022/01/31 00:53:30;;;;;;;;;;;7.30;99.90;7.80;100304.00;;;;339131;28;95853;-88
2022/01/31 00:53:43;;;;;;;;;;;7.30;99.90;7.80;100302.00;;;;340263;28;91183;-88
2022/01/31 00:53:55;;;;;;;;;;;7.30;99.90;7.90;100306.00;;;;341768;28;93896;-88
2022/01/31 00:54:06;;;;;;;;;;;7.30;99.90;7.90;100291.00;;;;338734;28;91135;-88
2022/01/31 00:54:18;;;;;;;;;;;7.30;99.90;7.90;100297.00;;;;340450;28;96047;-88
2022/01/31 00:54:30;;;;;;;;;;;7.30;99.90;7.80;100294.00;;;;340169;28;91938;-88
2022/01/31 00:54:42;;;;;;;;;;;7.30;99.90;7.80;100293.00;;;;341698;28;94718;-88
2022/01/31 00:54:54;;;;;;;;;;;7.30;99.90;7.80;100290.00;;;;340765;28;92331;-88
2022/01/31 00:55:07;;;;;;;;;;;7.30;99.90;7.90;100291.00;;;;342964;28;95725;-88
2022/01/31 00:55:18;;;;;;;;;;;7.30;99.90;7.90;100293.00;;;;341423;28;92084;-88
2022/01/31 00:55:30;;;;;;;;;;;7.30;99.90;7.90;100295.00;;;;340415;28;93497;-88
2022/01/31 00:55:42;;;;;;;;;;;7.30;99.90;7.80;100289.00;;;;340193;28;91273;-88
2022/01/31 00:55:54;;;;;;;;;;;7.30;99.90;7.80;100287.00;;;;340375;28;94790;-88
2022/01/31 00:56:05;;;;;;;;;;;7.30;99.90;7.80;100294.00;;;;341489;28;91126;-88
2022/01/31 00:56:21;;;;;;;;;;;7.30;99.90;7.80;100289.00;;;;343031;28;95118;-88
2022/01/31 00:56:33;;;;;;;;;;;7.30;99.90;7.90;100283.00;;;;340175;28;92108;-88
2022/01/31 00:56:44;;;;;;;;;;;7.30;99.90;7.90;100293.00;;;;341635;28;96036;-88
2022/01/31 00:56:56;;;;;;;;;;;7.30;99.90;7.90;100288.00;;;;341397;28;91339;-88
2022/01/31 00:57:08;;;;;;;;;;;7.30;99.90;7.90;100285.00;;;;340372;28;95607;-88
2022/01/31 00:57:20;;;;;;;;;;;7.30;99.90;7.90;100288.00;;;;338951;28;91908;-88
2022/01/31 00:57:31;;;;;;;;;;;7.30;99.90;7.90;100281.00;;;;340441;28;95638;-88
2022/01/31 00:57:43;;;;;;;;;;;7.30;99.90;7.90;100288.00;;;;340650;28;91357;-88
2022/01/31 00:57:55;;;;;;;;;;;7.30;99.90;8.00;100291.00;;;;337645;28;95157;-88
2022/01/31 00:58:07;;;;;;;;;;;7.30;99.90;8.00;100279.00;;;;340242;28;92008;-88
2022/01/31 00:58:19;;;;;;;;;;;7.30;99.90;8.00;100280.00;;;;341208;28;95717;-88
2022/01/31 00:58:30;;;;;;;;;;;7.30;99.90;8.00;100279.00;;;;340260;28;91063;-88
2022/01/31 00:58:42;;;;;;;;;;;7.30;99.90;8.00;100283.00;;;;340441;28;95652;-88
2022/01/31 00:58:54;;;;;;;;;;;7.30;99.90;7.90;100285.00;;;;341496;28;91948;-89
2022/01/31 00:59:06;;;;;;;;;;;7.40;99.90;8.00;100283.00;;;;340384;28;95781;-88
2022/01/31 00:59:18;;;;;;;;;;;7.40;99.90;8.00;100278.00;;;;338837;28;92004;-89
2022/01/31 00:59:29;;;;;;;;;;;7.30;99.90;8.00;100286.00;;;;339119;28;94894;-88
2022/01/31 00:59:41;;;;;;;;;;;7.40;99.90;8.00;100287.00;;;;341519;28;91403;-88
2022/01/31 00:59:54;;;;;;;;;;;7.40;99.90;8.00;100286.00;;;;338908;28;94935;-87
2022/01/31 01:00:06;;;;;;;;;;;7.40;99.90;7.90;100288.00;;;;340160;28;92147;-88
2022/01/31 01:00:18;;;;;;;;;;;7.40;99.90;8.00;100282.00;;;;339144;28;92450;-88
2022/01/31 01:00:30;;;;;;;;;;;7.40;99.90;7.90;100281.00;;;;337464;28;92034;-88
2022/01/31 01:00:42;;;;;;;;;;;7.40;99.90;7.90;100291.00;;;;339026;28;93654;-88
2022/01/31 01:00:54;;;;;;;;;;;7.40;99.90;7.90;100280.00;;;;340863;28;92126;-88
2022/01/31 01:01:06;;;;;;;;;;;7.40;99.90;7.90;100282.00;;;;341577;28;94756;-88
2022/01/31 01:01:18;;;;;;;;;;;7.40;99.90;7.90;100285.00;;;;341382;28;92093;-87
2022/01/31 01:01:30;;;;;;;;;;;7.40;99.90;7.90;100287.00;;;;339086;28;96878;-88
2022/01/31 01:01:42;;;;;;;;;;;7.40;99.90;7.90;100286.00;;;;338845;28;91343;-88
2022/01/31 01:01:54;;;;;;;;;;;7.40;99.90;7.90;100280.00;;;;340439;28;95656;-88
2022/01/31 01:02:06;;;;;;;;;;;7.40;99.90;7.90;100288.00;;;;341633;28;92140;-88
2022/01/31 01:02:18;;;;;;;;;;;7.40;99.90;7.90;100292.00;;;;341831;28;93549;-88
2022/01/31 01:02:31;;;;;;;;;;;7.40;99.90;7.80;100289.00;;;;338766;28;92046;-88
2022/01/31 01:02:43;;;;;;;;;;;7.40;99.90;7.80;100289.00;;;;340342;28;96348;-88
2022/01/31 01:02:55;;;;;;;;;;;7.30;99.90;7.80;100283.00;;;;340092;28;92219;-88
2022/01/31 01:03:06;;;;;;;;;;;7.40;99.90;7.80;100280.00;;;;340166;28;93496;-88
2022/01/31 01:03:18;;;;;;;;;;;7.40;99.90;7.80;100285.00;;;;341540;28;92113;-88
2022/01/31 01:03:30;;;;;;;;;;;7.40;99.90;7.80;100280.00;;;;341844;28;92682;-88
2022/01/31 01:03:42;;;;;;;;;;;7.40;99.90;7.80;100293.00;;;;341205;28;91443;-88
2022/01/31 01:03:54;;;;;;;;;;;7.40;99.90;7.80;100284.00;;;;341531;28;93590;-88
2022/01/31 01:04:06;;;;;;;;;;;7.40;99.90;7.90;100280.00;;;;342781;28;92042;-88
2022/01/31 01:04:17;;;;;;;;;;;7.40;99.90;7.90;100288.00;;;;339824;28;93461;-88
2022/01/31 01:04:29;;;;;;;;;;;7.30;99.90;7.90;100282.00;;;;340161;28;92049;-88
2022/01/31 01:04:41;;;;;;;;;;;7.30;99.90;7.80;100284.00;;;;343123;28;93377;-88
2022/01/31 01:04:53;;;;;;;;;;;7.40;99.90;7.80;100282.00;;;;341690;28;92029;-88
2022/01/31 01:05:05;;;;;;;;;;;7.40;99.90;7.80;100280.00;;;;339020;28;95302;-88
2022/01/31 01:05:16;;;;;;;;;;;7.30;99.90;7.80;100285.00;;;;338510;28;92180;-87
2022/01/31 01:05:28;;;;;;;;;;;7.40;99.90;7.80;100282.00;;;;340526;28;93563;-88
2022/01/31 01:05:40;;;;;;;;;;;7.40;99.90;7.90;100284.00;;;;340159;28;91330;-88